Time;durP1;ratioP1;P1;durP2;ratioP2;P2;SDS_P1;SDS_P2;PMS_P1;PMS_P2;Temp;Humidity;BMP_temperature;BMP_pressure;BME280_temperature;BME280_humidity;BME280_pressure;Samples;Min_cycle;Max_cycle;Signal;HPM_P1;HPM_P2
2023/12/27 00:01:19;;;;;;;;;;;;;;;;;;5085322;28;19958;-63
2023/12/27 00:03:45;;;;;;;;;;;;;;;;;;5086285;28;19912;-61
2023/12/27 00:06:11;;;;;;;;;;;;;;;;;;5091068;28;19912;-63
2023/12/27 00:08:37;;;;;;;;;;;;;;;;;;5092396;28;19923;-60
2023/12/27 00:11:03;;;;;;;;;;;;;;;;;;5091557;28;19967;-68
2023/12/27 00:13:29;;;;;;;;;;;;;;;;;;5088157;28;20405;-66
2023/12/27 00:15:55;;;;;;;;;;;;;;;;;;5095867;28;20007;-68
2023/12/27 00:18:21;;;;;;;;;;;;;;;;;;5095659;28;19934;-66
2023/12/27 00:20:47;;;;;;;;;;;;;;;;;;5094074;28;19920;-67
2023/12/27 00:23:13;;;;;;;;;;;;;;;;;;5094011;28;20009;-66
2023/12/27 00:25:39;;;;;;;;;;;;;;;;;;5095311;28;19974;-65
2023/12/27 00:28:05;;;;;;;;;;;;;;;;;;5095170;28;19923;-66
2023/12/27 00:30:31;;;;;;;;;;;;;;;;;;5090036;28;20444;-66
2023/12/27 00:32:57;;;;;;;;;;;;;;;;;;5095254;28;19947;-67
2023/12/27 00:35:23;;;;;;;;;;;;;;;;;;5089479;28;20003;-65
2023/12/27 00:37:49;;;;;;;;;;;;;;;;;;5094205;28;20193;-65
2023/12/27 00:40:15;;;;;;;;;;;;;;;;;;5089472;28;19919;-67
2023/12/27 00:42:41;;;;;;;;;;;;;;;;;;5095185;28;20390;-66
2023/12/27 00:45:07;;;;;;;;;;;;;;;;;;5088055;28;19952;-65
2023/12/27 00:47:33;;;;;;;;;;;;;;;;;;5094641;28;19913;-66
2023/12/27 00:49:59;;;;;;;;;;;;;;;;;;5084043;28;20169;-66
2023/12/27 00:52:25;;;;;;;;;;;;;;;;;;5093640;28;19938;-66
2023/12/27 00:54:52;;;;;;;;;;;;;;;;;;5092450;28;19920;-66
2023/12/27 00:57:18;;;;;;;;;;;;;;;;;;5090990;28;19912;-66
2023/12/27 00:59:46;;;;;;;;;;;;;;;;;;5092674;28;19935;-65
2023/12/27 01:02:12;;;;;;;;;;;;;;;;;;5094985;28;19912;-65
2023/12/27 01:04:37;;;;;;;;;;;;;;;;;;5095305;28;19957;-66
2023/12/27 01:07:03;;;;;;;;;;;;;;;;;;5094437;28;19912;-65
2023/12/27 01:09:29;;;;;;;;;;;;;;;;;;5088164;28;19966;-66
2023/12/27 01:11:55;;;;;;;;;;;;;;;;;;5091472;28;19955;-65
2023/12/27 01:14:21;;;;;;;;;;;;;;;;;;5094443;28;20500;-66
2023/12/27 01:16:47;;;;;;;;;;;;;;;;;;5093722;28;19913;-68
2023/12/27 01:19:13;;;;;;;;;;;;;;;;;;5092722;28;20402;-65
2023/12/27 01:21:39;;;;;;;;;;;;;;;;;;5086613;28;20391;-61
2023/12/27 01:24:05;;;;;;;;;;;;;;;;;;5083204;28;19924;-59
2023/12/27 01:26:31;;;;;;;;;;;;;;;;;;5093106;28;19924;-59
2023/12/27 01:28:57;;;;;;;;;;;;;;;;;;5094403;28;20558;-61
2023/12/27 01:31:22;;;;;;;;;;;;;;;;;;5094345;28;20011;-60
2023/12/27 01:33:48;;;;;;;;;;;;;;;;;;5095181;28;19960;-59
2023/12/27 01:36:14;;;;;;;;;;;;;;;;;;5093463;28;19912;-59
2023/12/27 01:38:40;;;;;;;;;;;;;;;;;;5094833;28;19912;-59
2023/12/27 01:41:06;;;;;;;;;;;;;;;;;;5094314;28;20353;-61
2023/12/27 01:43:32;;;;;;;;;;;;;;;;;;5094395;28;19916;-60
2023/12/27 01:45:58;;;;;;;;;;;;;;;;;;5093866;28;19912;-59
2023/12/27 01:48:24;;;;;;;;;;;;;;;;;;5092982;28;19962;-60
2023/12/27 01:50:50;;;;;;;;;;;;;;;;;;5092105;28;20019;-61
2023/12/27 01:53:16;;;;;;;;;;;;;;;;;;5092926;28;19919;-59
2023/12/27 01:55:42;;;;;;;;;;;;;;;;;;5093650;28;19939;-60
2023/12/27 01:58:10;;;;;;;;;;;;;;;;;;5094019;28;20292;-59
2023/12/27 02:00:37;;;;;;;;;;;;;;;;;;5093585;28;19912;-59
2023/12/27 02:03:03;;;;;;;;;;;;;;;;;;5093295;28;19913;-62
2023/12/27 02:05:28;;;;;;;;;;;;;;;;;;5093344;28;20393;-59
2023/12/27 02:07:54;;;;;;;;;;;;;;;;;;5093881;28;19912;-58
2023/12/27 02:10:20;;;;;;;;;;;;;;;;;;5078683;28;20379;-59
2023/12/27 02:12:46;;;;;;;;;;;;;;;;;;5088479;28;19985;-59
2023/12/27 02:15:12;;;;;;;;;;;;;;;;;;5087532;28;19921;-59
2023/12/27 02:17:38;;;;;;;;;;;;;;;;;;5091405;28;19912;-59
2023/12/27 02:20:04;;;;;;;;;;;;;;;;;;5091469;28;20387;-59
2023/12/27 02:22:30;;;;;;;;;;;;;;;;;;5091849;28;19968;-59
2023/12/27 02:24:56;;;;;;;;;;;;;;;;;;5092806;28;20367;-61
2023/12/27 02:27:22;;;;;;;;;;;;;;;;;;5091411;28;20051;-61
2023/12/27 02:29:47;;;;;;;;;;;;;;;;;;5091422;28;20268;-59
2023/12/27 02:32:13;;;;;;;;;;;;;;;;;;5081652;28;19912;-66
2023/12/27 02:34:39;;;;;;;;;;;;;;;;;;5085273;28;20015;-67
2023/12/27 02:37:05;;;;;;;;;;;;;;;;;;5091657;28;19912;-67
2023/12/27 02:39:31;;;;;;;;;;;;;;;;;;5090851;28;20368;-66
2023/12/27 02:41:57;;;;;;;;;;;;;;;;;;5091673;28;19912;-66
2023/12/27 02:44:26;;;;;;;;;;;;;;;;;;5090512;28;19920;-67
2023/12/27 02:46:52;;;;;;;;;;;;;;;;;;5091396;28;20446;-67
2023/12/27 02:49:18;;;;;;;;;;;;;;;;;;5089019;28;19952;-67
2023/12/27 02:51:44;;;;;;;;;;;;;;;;;;5091030;28;19960;-67
2023/12/27 02:54:09;;;;;;;;;;;;;;;;;;5089832;28;20358;-67
2023/12/27 02:56:35;;;;;;;;;;;;;;;;;;5089191;28;19918;-67
2023/12/27 02:59:01;;;;;;;;;;;;;;;;;;5091596;28;20372;-67
2023/12/27 03:01:27;;;;;;;;;;;;;;;;;;5090421;28;19918;-67
2023/12/27 03:03:53;;;;;;;;;;;;;;;;;;5090131;28;19976;-67
2023/12/27 03:06:19;;;;;;;;;;;;;;;;;;5092462;28;19912;-67
2023/12/27 03:08:45;;;;;;;;;;;;;;;;;;5091213;28;19912;-67
2023/12/27 03:11:11;;;;;;;;;;;;;;;;;;5090534;28;19923;-67
2023/12/27 03:13:37;;;;;;;;;;;;;;;;;;5091535;28;19916;-67
2023/12/27 03:16:03;;;;;;;;;;;;;;;;;;5089439;28;19959;-68
2023/12/27 03:18:28;;;;;;;;;;;;;;;;;;5089901;28;19921;-67
2023/12/27 03:20:54;;;;;;;;;;;;;;;;;;5091206;28;20343;-67
2023/12/27 03:23:20;;;;;;;;;;;;;;;;;;5091707;28;20082;-67
2023/12/27 03:25:46;;;;;;;;;;;;;;;;;;5089675;28;20233;-66
2023/12/27 03:28:12;;;;;;;;;;;;;;;;;;5090830;28;19932;-67
2023/12/27 03:30:38;;;;;;;;;;;;;;;;;;5090733;28;19983;-67
2023/12/27 03:33:04;;;;;;;;;;;;;;;;;;5090784;28;19916;-66
2023/12/27 03:35:30;;;;;;;;;;;;;;;;;;5090834;28;19920;-67
2023/12/27 03:37:55;;;;;;;;;;;;;;;;;;5087451;28;19974;-68
2023/12/27 03:40:24;;;;;;;;;;;;;;;;;;5086487;28;20011;-62
2023/12/27 03:42:50;;;;;;;;;;;;;;;;;;5087860;28;19958;-62
2023/12/27 03:45:18;;;;;;;;;;;;;;;;;;5091426;28;19970;-63
2023/12/27 03:47:44;;;;;;;;;;;;;;;;;;5083147;28;19916;-62
2023/12/27 03:50:09;;;;;;;;;;;;;;;;;;5081076;28;20380;-63
2023/12/27 03:52:35;;;;;;;;;;;;;;;;;;5086579;28;19995;-63
2023/12/27 03:55:01;;;;;;;;;;;;;;;;;;5083471;28;20025;-62
2023/12/27 03:57:27;;;;;;;;;;;;;;;;;;5091089;28;19923;-63
2023/12/27 03:59:53;;;;;;;;;;;;;;;;;;5091194;28;19983;-63
2023/12/27 04:02:19;;;;;;;;;;;;;;;;;;5088765;28;20419;-62
2023/12/27 04:04:46;;;;;;;;;;;;;;;;;;5090729;28;20058;-63
2023/12/27 04:07:12;;;;;;;;;;;;;;;;;;5090159;28;20272;-63
2023/12/27 04:09:38;;;;;;;;;;;;;;;;;;5090340;28;19916;-63
2023/12/27 04:12:04;;;;;;;;;;;;;;;;;;5091590;28;19924;-62
2023/12/27 04:14:30;;;;;;;;;;;;;;;;;;5088888;28;20268;-63
2023/12/27 04:16:56;;;;;;;;;;;;;;;;;;5089543;28;19947;-63
2023/12/27 04:19:22;;;;;;;;;;;;;;;;;;5089542;28;19934;-63
2023/12/27 04:21:48;;;;;;;;;;;;;;;;;;5091224;28;19916;-63
2023/12/27 04:24:14;;;;;;;;;;;;;;;;;;5086987;28;20000;-63
2023/12/27 04:26:39;;;;;;;;;;;;;;;;;;5090877;28;20371;-63
2023/12/27 04:29:05;;;;;;;;;;;;;;;;;;5089963;28;19977;-63
2023/12/27 04:31:31;;;;;;;;;;;;;;;;;;5090304;28;19916;-63
2023/12/27 04:33:57;;;;;;;;;;;;;;;;;;5088077;28;19916;-62
2023/12/27 04:36:23;;;;;;;;;;;;;;;;;;5085224;28;19956;-63
2023/12/27 04:38:49;;;;;;;;;;;;;;;;;;5086899;28;20350;-63
2023/12/27 04:41:15;;;;;;;;;;;;;;;;;;5091099;28;19968;-63
2023/12/27 04:43:41;;;;;;;;;;;;;;;;;;5090593;28;19916;-63
2023/12/27 04:46:07;;;;;;;;;;;;;;;;;;5087694;28;19924;-63
2023/12/27 04:48:33;;;;;;;;;;;;;;;;;;5086643;28;19912;-62
2023/12/27 04:50:59;;;;;;;;;;;;;;;;;;5090257;28;19935;-59
2023/12/27 04:53:25;;;;;;;;;;;;;;;;;;5091286;28;19916;-60
2023/12/27 04:55:51;;;;;;;;;;;;;;;;;;5091189;28;20268;-60
2023/12/27 04:58:17;;;;;;;;;;;;;;;;;;5088150;28;19927;-60
2023/12/27 05:00:43;;;;;;;;;;;;;;;;;;5090151;28;19955;-60
2023/12/27 05:03:09;;;;;;;;;;;;;;;;;;5087278;28;19954;-59
2023/12/27 05:05:35;;;;;;;;;;;;;;;;;;5093290;28;19920;-60
2023/12/27 05:08:01;;;;;;;;;;;;;;;;;;5091683;28;19916;-60
2023/12/27 05:10:27;;;;;;;;;;;;;;;;;;5093218;28;20015;-60
2023/12/27 05:12:53;;;;;;;;;;;;;;;;;;5091377;28;20420;-60
2023/12/27 05:15:19;;;;;;;;;;;;;;;;;;5088270;28;19912;-60
2023/12/27 05:17:45;;;;;;;;;;;;;;;;;;5092637;28;19954;-59
2023/12/27 05:20:11;;;;;;;;;;;;;;;;;;5091461;28;19912;-61
2023/12/27 05:22:39;;;;;;;;;;;;;;;;;;5093154;28;20396;-59
2023/12/27 05:25:05;;;;;;;;;;;;;;;;;;5092668;28;19919;-61
2023/12/27 05:27:31;;;;;;;;;;;;;;;;;;5086011;28;19955;-61
2023/12/27 05:29:58;;;;;;;;;;;;;;;;;;5091378;28;20440;-60
2023/12/27 05:32:24;;;;;;;;;;;;;;;;;;5091738;28;20027;-60
2023/12/27 05:34:50;;;;;;;;;;;;;;;;;;5091294;28;19966;-61
2023/12/27 05:37:16;;;;;;;;;;;;;;;;;;5089777;28;20004;-59
2023/12/27 05:39:42;;;;;;;;;;;;;;;;;;5089948;28;19919;-59
2023/12/27 05:42:09;;;;;;;;;;;;;;;;;;5093191;28;19912;-62
2023/12/27 05:44:35;;;;;;;;;;;;;;;;;;5088708;28;20000;-61
2023/12/27 05:47:01;;;;;;;;;;;;;;;;;;5091638;28;20007;-61
2023/12/27 05:49:27;;;;;;;;;;;;;;;;;;5086009;28;20609;-61
2023/12/27 05:51:53;;;;;;;;;;;;;;;;;;5090466;28;19976;-59
2023/12/27 05:54:19;;;;;;;;;;;;;;;;;;5090355;28;20268;-59
2023/12/27 05:56:45;;;;;;;;;;;;;;;;;;5092043;28;19916;-59
2023/12/27 05:59:11;;;;;;;;;;;;;;;;;;5092025;28;20292;-59
2023/12/27 06:01:38;;;;;;;;;;;;;;;;;;5092500;28;19920;-62
2023/12/27 06:04:04;;;;;;;;;;;;;;;;;;5092784;28;19957;-63
2023/12/27 06:06:30;;;;;;;;;;;;;;;;;;5090383;28;19915;-63
2023/12/27 06:08:56;;;;;;;;;;;;;;;;;;5090674;28;19951;-63
2023/12/27 06:11:22;;;;;;;;;;;;;;;;;;5088553;28;20000;-62
2023/12/27 06:13:47;;;;;;;;;;;;;;;;;;5092578;28;20356;-62
2023/12/27 06:16:14;;;;;;;;;;;;;;;;;;5091005;28;19919;-62
2023/12/27 06:18:39;;;;;;;;;;;;;;;;;;5088123;28;20360;-62
2023/12/27 06:21:05;;;;;;;;;;;;;;;;;;5086389;28;19959;-62
2023/12/27 06:23:31;;;;;;;;;;;;;;;;;;5092933;28;20011;-62
2023/12/27 06:25:57;;;;;;;;;;;;;;;;;;5086156;28;19924;-62
2023/12/27 06:28:23;;;;;;;;;;;;;;;;;;5089259;28;20026;-62
2023/12/27 06:30:49;;;;;;;;;;;;;;;;;;5091362;28;19976;-62
2023/12/27 06:33:15;;;;;;;;;;;;;;;;;;5092746;28;19948;-62
2023/12/27 06:35:41;;;;;;;;;;;;;;;;;;5083852;28;19920;-62
2023/12/27 06:38:07;;;;;;;;;;;;;;;;;;5088452;28;19923;-62
2023/12/27 06:40:33;;;;;;;;;;;;;;;;;;5087464;28;19912;-62
2023/12/27 06:42:59;;;;;;;;;;;;;;;;;;5092194;28;19923;-62
2023/12/27 06:45:25;;;;;;;;;;;;;;;;;;5090842;28;19959;-62
2023/12/27 06:47:51;;;;;;;;;;;;;;;;;;5083781;28;19920;-63
2023/12/27 06:50:17;;;;;;;;;;;;;;;;;;5092801;28;19920;-62
2023/12/27 06:52:42;;;;;;;;;;;;;;;;;;5091156;28;20283;-62
2023/12/27 06:55:09;;;;;;;;;;;;;;;;;;5087540;28;20368;-62
2023/12/27 06:57:35;;;;;;;;;;;;;;;;;;5090551;28;20280;-63
2023/12/27 07:00:01;;;;;;;;;;;;;;;;;;5091754;28;19958;-62
2023/12/27 07:02:26;;;;;;;;;;;;;;;;;;5088590;28;20030;-62
2023/12/27 07:04:52;;;;;;;;;;;;;;;;;;5092716;28;20338;-63
2023/12/27 07:07:19;;;;;;;;;;;;;;;;;;5091880;28;20364;-62
2023/12/27 07:09:45;;;;;;;;;;;;;;;;;;5087636;28;19945;-63
2023/12/27 07:12:12;;;;;;;;;;;;;;;;;;5087199;28;19919;-62
2023/12/27 07:14:38;;;;;;;;;;;;;;;;;;5080588;28;20269;-61
2023/12/27 07:17:04;;;;;;;;;;;;;;;;;;5086453;28;19912;-62
2023/12/27 07:19:30;;;;;;;;;;;;;;;;;;5081326;28;20455;-61
2023/12/27 07:21:57;;;;;;;;;;;;;;;;;;5087444;28;19912;-61
2023/12/27 07:24:23;;;;;;;;;;;;;;;;;;5090557;28;19920;-61
2023/12/27 07:26:50;;;;;;;;;;;;;;;;;;5090899;28;19973;-61
2023/12/27 07:29:16;;;;;;;;;;;;;;;;;;5083166;28;19924;-61
2023/12/27 07:31:41;;;;;;;;;;;;;;;;;;5087036;28;20386;-61
2023/12/27 07:34:07;;;;;;;;;;;;;;;;;;5072670;28;20018;-62
2023/12/27 07:36:33;;;;;;;;;;;;;;;;;;5077819;28;19912;-62
2023/12/27 07:38:59;;;;;;;;;;;;;;;;;;5087952;28;19948;-62
2023/12/27 07:41:25;;;;;;;;;;;;;;;;;;5089941;28;20316;-61
2023/12/27 07:43:51;;;;;;;;;;;;;;;;;;5088035;28;20056;-62
2023/12/27 07:46:17;;;;;;;;;;;;;;;;;;5086943;28;19912;-61
2023/12/27 07:48:43;;;;;;;;;;;;;;;;;;5084374;28;19935;-61
2023/12/27 07:51:09;;;;;;;;;;;;;;;;;;5083208;28;19974;-61
2023/12/27 07:53:35;;;;;;;;;;;;;;;;;;5085066;28;19971;-62
2023/12/27 07:56:01;;;;;;;;;;;;;;;;;;5089158;28;19963;-62
2023/12/27 07:58:27;;;;;;;;;;;;;;;;;;5087440;28;19912;-61
2023/12/27 08:00:53;;;;;;;;;;;;;;;;;;5089378;28;20447;-61
2023/12/27 08:03:19;;;;;;;;;;;;;;;;;;5086864;28;19916;-61
2023/12/27 08:05:45;;;;;;;;;;;;;;;;;;5089588;28;19956;-61
2023/12/27 08:08:10;;;;;;;;;;;;;;;;;;5087813;28;19922;-61
2023/12/27 08:10:36;;;;;;;;;;;;;;;;;;5089665;28;20352;-61
2023/12/27 08:13:03;;;;;;;;;;;;;;;;;;5081006;28;19966;-62
2023/12/27 08:15:29;;;;;;;;;;;;;;;;;;5081405;28;20397;-61
2023/12/27 08:17:55;;;;;;;;;;;;;;;;;;5091726;28;19908;-61
2023/12/27 08:20:21;;;;;;;;;;;;;;;;;;5086842;28;20253;-61
2023/12/27 08:22:47;;;;;;;;;;;;;;;;;;5087134;28;19919;-61
2023/12/27 08:25:13;;;;;;;;;;;;;;;;;;5086657;28;19951;-61
2023/12/27 08:27:39;;;;;;;;;;;;;;;;;;5082339;28;20029;-62
2023/12/27 08:30:05;;;;;;;;;;;;;;;;;;5079883;28;20382;-62
2023/12/27 08:32:31;;;;;;;;;;;;;;;;;;5085087;28;19951;-62
2023/12/27 08:34:56;;;;;;;;;;;;;;;;;;5083145;28;19918;-62
2023/12/27 08:37:22;;;;;;;;;;;;;;;;;;5086368;28;20384;-62
2023/12/27 08:39:48;;;;;;;;;;;;;;;;;;5088797;28;19958;-61
2023/12/27 08:42:14;;;;;;;;;;;;;;;;;;5091866;28;20078;-62
2023/12/27 08:44:40;;;;;;;;;;;;;;;;;;5092658;28;19920;-62
2023/12/27 08:47:06;;;;;;;;;;;;;;;;;;5094259;28;19918;-62
2023/12/27 08:49:32;;;;;;;;;;;;;;;;;;5093799;28;19962;-62
2023/12/27 08:51:58;;;;;;;;;;;;;;;;;;5083732;28;20385;-61
2023/12/27 08:54:25;;;;;;;;;;;;;;;;;;5093873;28;20048;-61
2023/12/27 08:56:51;;;;;;;;;;;;;;;;;;5093971;28;20287;-61
2023/12/27 08:59:17;;;;;;;;;;;;;;;;;;5091396;28;19999;-61
2023/12/27 09:01:42;;;;;;;;;;;;;;;;;;5092850;28;19918;-61
2023/12/27 09:04:08;;;;;;;;;;;;;;;;;;5094052;28;19916;-61
2023/12/27 09:06:35;;;;;;;;;;;;;;;;;;5093223;28;19960;-62
2023/12/27 09:09:00;;;;;;;;;;;;;;;;;;5087150;28;19919;-61
2023/12/27 09:11:26;;;;;;;;;;;;;;;;;;5092071;28;19961;-61
2023/12/27 09:13:52;;;;;;;;;;;;;;;;;;5090279;28;19912;-61
2023/12/27 09:16:18;;;;;;;;;;;;;;;;;;5091133;28;19947;-60
2023/12/27 09:18:44;;;;;;;;;;;;;;;;;;5093537;28;19959;-61
2023/12/27 09:21:10;;;;;;;;;;;;;;;;;;5093054;28;19920;-61
2023/12/27 09:23:36;;;;;;;;;;;;;;;;;;5090509;28;19912;-60
2023/12/27 09:26:02;;;;;;;;;;;;;;;;;;5093700;28;19912;-61
2023/12/27 09:28:28;;;;;;;;;;;;;;;;;;5093603;28;20019;-60
2023/12/27 09:30:54;;;;;;;;;;;;;;;;;;5088361;28;19916;-62
2023/12/27 09:33:20;;;;;;;;;;;;;;;;;;5090499;28;19966;-62
2023/12/27 09:35:45;;;;;;;;;;;;;;;;;;5094312;28;19908;-62
2023/12/27 09:38:11;;;;;;;;;;;;;;;;;;5089665;28;19950;-62
2023/12/27 09:40:37;;;;;;;;;;;;;;;;;;5086179;28;19952;-62
2023/12/27 09:43:06;;;;;;;;;;;;;;;;;;5088786;28;19922;-64
2023/12/27 09:45:32;;;;;;;;;;;;;;;;;;5090582;28;20383;-62
2023/12/27 09:47:58;;;;;;;;;;;;;;;;;;5083464;28;19916;-62
2023/12/27 09:50:25;;;;;;;;;;;;;;;;;;5091219;28;19924;-62
2023/12/27 09:52:51;;;;;;;;;;;;;;;;;;5091438;28;20451;-62
2023/12/27 09:55:16;;;;;;;;;;;;;;;;;;5088279;28;19959;-62
2023/12/27 09:57:42;;;;;;;;;;;;;;;;;;5082728;28;19942;-62
2023/12/27 10:00:08;;;;;;;;;;;;;;;;;;5091748;28;19927;-64
2023/12/27 10:02:34;;;;;;;;;;;;;;;;;;5092111;28;19912;-64
2023/12/27 10:05:02;;;;;;;;;;;;;;;;;;5089266;28;20384;-62
2023/12/27 10:07:28;;;;;;;;;;;;;;;;;;5091488;28;20278;-62
2023/12/27 10:09:54;;;;;;;;;;;;;;;;;;5086450;28;20002;-62
2023/12/27 10:12:20;;;;;;;;;;;;;;;;;;5088333;28;19922;-64
2023/12/27 10:14:46;;;;;;;;;;;;;;;;;;5091371;28;20393;-62
2023/12/27 10:17:12;;;;;;;;;;;;;;;;;;5086116;28;19916;-64
2023/12/27 10:19:41;;;;;;;;;;;;;;;;;;5084556;28;19938;-62
2023/12/27 10:22:07;;;;;;;;;;;;;;;;;;5090701;28;20355;-63
2023/12/27 10:24:34;;;;;;;;;;;;;;;;;;5087959;28;20007;-62
2023/12/27 10:27:00;;;;;;;;;;;;;;;;;;5091486;28;19927;-62
2023/12/27 10:29:26;;;;;;;;;;;;;;;;;;5091602;28;19916;-62
2023/12/27 10:31:52;;;;;;;;;;;;;;;;;;5089728;28;20446;-62
2023/12/27 10:34:18;;;;;;;;;;;;;;;;;;5089204;28;19926;-64
2023/12/27 10:36:44;;;;;;;;;;;;;;;;;;5089965;28;20245;-62
2023/12/27 10:39:10;;;;;;;;;;;;;;;;;;5081883;28;19955;-62
2023/12/27 10:41:35;;;;;;;;;;;;;;;;;;5086059;28;19995;-66
2023/12/27 10:44:04;;;;;;;;;;;;;;;;;;5089432;28;20411;-68
2023/12/27 10:46:30;;;;;;;;;;;;;;;;;;5089329;28;20284;-66
2023/12/27 10:48:56;;;;;;;;;;;;;;;;;;5086083;28;19995;-65
2023/12/27 10:51:23;;;;;;;;;;;;;;;;;;5087548;28;19916;-65
2023/12/27 10:53:49;;;;;;;;;;;;;;;;;;5084775;28;19994;-63
2023/12/27 10:56:15;;;;;;;;;;;;;;;;;;5084072;28;19994;-65
2023/12/27 10:58:43;;;;;;;;;;;;;;;;;;5085709;28;20292;-66
2023/12/27 11:01:09;;;;;;;;;;;;;;;;;;5084507;28;19920;-64
2023/12/27 11:03:35;;;;;;;;;;;;;;;;;;5088875;28;19963;-67
2023/12/27 11:06:01;;;;;;;;;;;;;;;;;;5091053;28;19917;-65
2023/12/27 11:08:27;;;;;;;;;;;;;;;;;;5085021;28;19926;-64
2023/12/27 11:10:53;;;;;;;;;;;;;;;;;;5080880;28;19924;-66
2023/12/27 11:13:19;;;;;;;;;;;;;;;;;;5085182;28;19912;-67
2023/12/27 11:15:45;;;;;;;;;;;;;;;;;;5087067;28;19958;-67
2023/12/27 11:18:11;;;;;;;;;;;;;;;;;;5086143;28;19960;-67
2023/12/27 11:20:37;;;;;;;;;;;;;;;;;;5086487;28;20402;-68
2023/12/27 11:23:03;;;;;;;;;;;;;;;;;;5083950;28;20530;-67
2023/12/27 11:25:29;;;;;;;;;;;;;;;;;;5086421;28;19912;-67
2023/12/27 11:27:55;;;;;;;;;;;;;;;;;;5083837;28;19920;-67
2023/12/27 11:30:21;;;;;;;;;;;;;;;;;;5088724;28;19930;-67
2023/12/27 11:32:47;;;;;;;;;;;;;;;;;;5086419;28;19955;-64
2023/12/27 11:35:13;;;;;;;;;;;;;;;;;;5084765;28;20420;-64
2023/12/27 11:37:39;;;;;;;;;;;;;;;;;;5087128;28;19912;-68
2023/12/27 11:40:05;;;;;;;;;;;;;;;;;;5085474;28;20371;-67
2023/12/27 11:42:31;;;;;;;;;;;;;;;;;;5090918;28;20002;-67
2023/12/27 11:44:58;;;;;;;;;;;;;;;;;;5087209;28;20574;-67
2023/12/27 11:47:24;;;;;;;;;;;;;;;;;;5087829;28;19997;-68
2023/12/27 11:49:50;;;;;;;;;;;;;;;;;;5080727;28;20402;-66
2023/12/27 11:52:16;;;;;;;;;;;;;;;;;;5081874;28;19916;-62
2023/12/27 11:54:42;;;;;;;;;;;;;;;;;;5077607;28;19912;-62
2023/12/27 11:57:10;;;;;;;;;;;;;;;;;;5083702;28;19975;-63
2023/12/27 11:59:36;;;;;;;;;;;;;;;;;;5085714;28;19912;-62
2023/12/27 12:02:01;;;;;;;;;;;;;;;;;;5083487;28;19959;-62
2023/12/27 12:04:27;;;;;;;;;;;;;;;;;;5086767;28;19916;-62
2023/12/27 12:06:53;;;;;;;;;;;;;;;;;;5082853;28;20021;-62
2023/12/27 12:09:20;;;;;;;;;;;;;;;;;;5084266;28;19951;-62
2023/12/27 12:11:46;;;;;;;;;;;;;;;;;;5087740;28;20326;-63
2023/12/27 12:14:12;;;;;;;;;;;;;;;;;;5091527;28;19951;-63
2023/12/27 12:16:38;;;;;;;;;;;;;;;;;;5088136;28;19951;-62
2023/12/27 12:19:05;;;;;;;;;;;;;;;;;;5085640;28;19966;-63
2023/12/27 12:21:31;;;;;;;;;;;;;;;;;;5089848;28;19975;-62
2023/12/27 12:23:57;;;;;;;;;;;;;;;;;;5085172;28;20416;-62
2023/12/27 12:26:23;;;;;;;;;;;;;;;;;;5089134;28;19916;-63
2023/12/27 12:28:49;;;;;;;;;;;;;;;;;;5085144;28;20416;-62
2023/12/27 12:31:15;;;;;;;;;;;;;;;;;;5092438;28;20351;-62
2023/12/27 12:33:40;;;;;;;;;;;;;;;;;;5083894;28;19916;-62
2023/12/27 12:36:06;;;;;;;;;;;;;;;;;;5091543;28;20004;-62
2023/12/27 12:38:32;;;;;;;;;;;;;;;;;;5084284;28;19958;-62
2023/12/27 12:40:58;;;;;;;;;;;;;;;;;;5088798;28;19912;-62
2023/12/27 12:43:24;;;;;;;;;;;;;;;;;;5093274;28;19916;-62
2023/12/27 12:45:50;;;;;;;;;;;;;;;;;;5092675;28;20136;-62
2023/12/27 12:48:17;;;;;;;;;;;;;;;;;;5091488;28;20310;-62
2023/12/27 12:50:43;;;;;;;;;;;;;;;;;;5092725;28;19970;-62
2023/12/27 12:53:08;;;;;;;;;;;;;;;;;;5088003;28;19966;-63
2023/12/27 12:55:34;;;;;;;;;;;;;;;;;;5086434;28;20026;-62
2023/12/27 12:58:00;;;;;;;;;;;;;;;;;;5087069;28;19980;-62
2023/12/27 13:00:26;;;;;;;;;;;;;;;;;;5085409;28;19912;-67
2023/12/27 13:02:53;;;;;;;;;;;;;;;;;;5088711;28;19920;-63
2023/12/27 13:05:19;;;;;;;;;;;;;;;;;;5083989;28;20652;-63
2023/12/27 13:07:45;;;;;;;;;;;;;;;;;;5084533;28;19927;-63
2023/12/27 13:10:11;;;;;;;;;;;;;;;;;;5083493;28;19943;-63
2023/12/27 13:12:37;;;;;;;;;;;;;;;;;;5084143;28;19942;-63
2023/12/27 13:15:03;;;;;;;;;;;;;;;;;;5083880;28;20431;-63
2023/12/27 13:17:29;;;;;;;;;;;;;;;;;;5087411;28;19913;-63
2023/12/27 13:19:55;;;;;;;;;;;;;;;;;;5084153;28;20011;-63
2023/12/27 13:22:21;;;;;;;;;;;;;;;;;;5081891;28;19916;-63
2023/12/27 13:24:47;;;;;;;;;;;;;;;;;;5084392;28;19919;-63
2023/12/27 13:27:13;;;;;;;;;;;;;;;;;;5083241;28;19974;-63
2023/12/27 13:29:39;;;;;;;;;;;;;;;;;;5087651;28;19951;-63
2023/12/27 13:32:05;;;;;;;;;;;;;;;;;;5085003;28;19963;-63
2023/12/27 13:34:31;;;;;;;;;;;;;;;;;;5083487;28;19951;-63
2023/12/27 13:36:57;;;;;;;;;;;;;;;;;;5084024;28;20390;-64
2023/12/27 13:39:23;;;;;;;;;;;;;;;;;;5083265;28;20433;-63
2023/12/27 13:41:49;;;;;;;;;;;;;;;;;;5083681;28;19913;-63
2023/12/27 13:44:15;;;;;;;;;;;;;;;;;;5088474;28;19977;-63
2023/12/27 13:46:40;;;;;;;;;;;;;;;;;;5081477;28;19920;-64
2023/12/27 13:49:09;;;;;;;;;;;;;;;;;;5090363;28;19944;-63
2023/12/27 13:51:35;;;;;;;;;;;;;;;;;;5089799;28;19924;-63
2023/12/27 13:54:01;;;;;;;;;;;;;;;;;;5083557;28;19963;-61
2023/12/27 13:56:26;;;;;;;;;;;;;;;;;;5089969;28;19934;-63
2023/12/27 13:58:52;;;;;;;;;;;;;;;;;;5093167;28;19915;-63
2023/12/27 14:01:18;;;;;;;;;;;;;;;;;;5087594;28;19912;-63
2023/12/27 14:03:44;;;;;;;;;;;;;;;;;;5091594;28;19914;-63
2023/12/27 14:06:11;;;;;;;;;;;;;;;;;;5089902;28;19957;-61
2023/12/27 14:08:37;;;;;;;;;;;;;;;;;;5089315;28;20003;-63
2023/12/27 14:11:03;;;;;;;;;;;;;;;;;;5089935;28;20355;-63
2023/12/27 14:13:29;;;;;;;;;;;;;;;;;;5085972;28;19912;-63
2023/12/27 14:15:55;;;;;;;;;;;;;;;;;;5092933;28;19912;-63
2023/12/27 14:18:21;;;;;;;;;;;;;;;;;;5087539;28;20375;-63
2023/12/27 14:20:47;;;;;;;;;;;;;;;;;;5087473;28;19916;-62
2023/12/27 14:23:12;;;;;;;;;;;;;;;;;;5091763;28;19909;-62
2023/12/27 14:25:38;;;;;;;;;;;;;;;;;;5080665;28;20309;-62
2023/12/27 14:28:06;;;;;;;;;;;;;;;;;;5086994;28;20024;-62
2023/12/27 14:30:32;;;;;;;;;;;;;;;;;;5088841;28;20041;-62
2023/12/27 14:32:58;;;;;;;;;;;;;;;;;;5077555;28;19983;-63
2023/12/27 14:35:23;;;;;;;;;;;;;;;;;;5084030;28;19931;-63
2023/12/27 14:37:50;;;;;;;;;;;;;;;;;;5085048;28;20364;-63
2023/12/27 14:40:16;;;;;;;;;;;;;;;;;;5085119;28;19930;-63
2023/12/27 14:42:42;;;;;;;;;;;;;;;;;;5087226;28;20280;-63
2023/12/27 14:45:08;;;;;;;;;;;;;;;;;;5088343;28;19972;-63
2023/12/27 14:47:34;;;;;;;;;;;;;;;;;;5088396;28;19966;-63
2023/12/27 14:50:00;;;;;;;;;;;;;;;;;;5085981;28;19958;-63
2023/12/27 14:52:27;;;;;;;;;;;;;;;;;;5085014;28;19916;-63
2023/12/27 14:54:53;;;;;;;;;;;;;;;;;;5087489;28;19937;-61
2023/12/27 14:57:22;;;;;;;;;;;;;;;;;;5083918;28;19912;-63
2023/12/27 14:59:48;;;;;;;;;;;;;;;;;;5083825;28;19916;-63
2023/12/27 15:02:15;;;;;;;;;;;;;;;;;;5085331;28;21632;-63
2023/12/27 15:04:41;;;;;;;;;;;;;;;;;;5082508;28;19980;-63
2023/12/27 15:07:07;;;;;;;;;;;;;;;;;;5081780;28;20659;-63
2023/12/27 15:09:33;;;;;;;;;;;;;;;;;;5077825;28;19993;-63
2023/12/27 15:11:58;;;;;;;;;;;;;;;;;;5088307;28;19924;-63
2023/12/27 15:14:24;;;;;;;;;;;;;;;;;;5086343;28;19955;-63
2023/12/27 15:16:50;;;;;;;;;;;;;;;;;;5087120;28;19924;-63
2023/12/27 15:19:16;;;;;;;;;;;;;;;;;;5091752;28;19912;-61
2023/12/27 15:21:43;;;;;;;;;;;;;;;;;;5087995;28;19955;-63
2023/12/27 15:24:09;;;;;;;;;;;;;;;;;;5088596;28;19912;-63
2023/12/27 15:26:35;;;;;;;;;;;;;;;;;;5080427;28;20016;-63
2023/12/27 15:29:00;;;;;;;;;;;;;;;;;;5085211;28;19959;-61
2023/12/27 15:31:27;;;;;;;;;;;;;;;;;;5089573;28;19920;-68
2023/12/27 15:33:53;;;;;;;;;;;;;;;;;;5084044;28;19912;-68
2023/12/27 15:36:19;;;;;;;;;;;;;;;;;;5087032;28;19919;-68
2023/12/27 15:38:55;;;;;;;;;;;;;;;;;;5084519;28;19981;-67
2023/12/27 15:41:23;;;;;;;;;;;;;;;;;;5082257;28;20479;-63
2023/12/27 15:43:52;;;;;;;;;;;;;;;;;;5086622;28;19970;-63
2023/12/27 15:46:18;;;;;;;;;;;;;;;;;;5089348;28;19916;-63
2023/12/27 15:48:44;;;;;;;;;;;;;;;;;;5083154;28;19912;-62
2023/12/27 15:51:10;;;;;;;;;;;;;;;;;;5090520;28;19963;-63
2023/12/27 15:53:36;;;;;;;;;;;;;;;;;;5092250;28;19918;-63
2023/12/27 15:56:02;;;;;;;;;;;;;;;;;;5086792;28;20267;-63
2023/12/27 15:58:28;;;;;;;;;;;;;;;;;;5082396;28;19917;-63
2023/12/27 16:00:54;;;;;;;;;;;;;;;;;;5086629;28;19947;-63
2023/12/27 16:03:20;;;;;;;;;;;;;;;;;;5090543;28;19912;-63
2023/12/27 16:05:46;;;;;;;;;;;;;;;;;;5089716;28;20380;-63
2023/12/27 16:08:12;;;;;;;;;;;;;;;;;;5084372;28;19955;-63
2023/12/27 16:10:38;;;;;;;;;;;;;;;;;;5090796;28;20022;-63
2023/12/27 16:13:04;;;;;;;;;;;;;;;;;;5085108;28;19918;-63
2023/12/27 16:15:29;;;;;;;;;;;;;;;;;;5088861;28;19963;-62
2023/12/27 16:17:59;;;;;;;;;;;;;;;;;;5091344;28;20000;-63
2023/12/27 16:20:25;;;;;;;;;;;;;;;;;;5085207;28;19912;-63
2023/12/27 16:22:51;;;;;;;;;;;;;;;;;;5086563;28;19956;-63
2023/12/27 16:25:17;;;;;;;;;;;;;;;;;;5091654;28;19908;-63
2023/12/27 16:27:43;;;;;;;;;;;;;;;;;;5081570;28;19995;-63
2023/12/27 16:30:09;;;;;;;;;;;;;;;;;;5084492;28;19936;-63
2023/12/27 16:32:35;;;;;;;;;;;;;;;;;;5088577;28;20387;-63
2023/12/27 16:35:00;;;;;;;;;;;;;;;;;;5081960;28;19947;-63
2023/12/27 16:37:26;;;;;;;;;;;;;;;;;;5083590;28;19965;-63